createdAt,value
2018-03-20T00:00:53.475Z,63.20
2018-03-20T00:02:00.183Z,63.20
2018-03-20T00:03:06.469Z,64.50
2018-03-20T00:04:11.988Z,64.50
2018-03-20T00:05:18.451Z,64.10
2018-03-20T00:06:24.749Z,62.70
2018-03-20T00:07:29.993Z,62.70
2018-03-20T00:08:35.130Z,63.10
2018-03-20T00:09:41.340Z,62.80
2018-03-20T00:10:47.053Z,62.80
2018-03-20T00:11:53.764Z,62.70
2018-03-20T00:12:59.772Z,63.10
2018-03-20T00:14:05.056Z,63.90
2018-03-20T00:15:10.988Z,64.90
2018-03-20T00:16:16.127Z,64.80
2018-03-20T00:17:21.227Z,64.80
2018-03-20T00:18:26.370Z,65.40
2018-03-20T00:19:31.769Z,65.00
2018-03-20T00:20:36.882Z,65.00
2018-03-20T00:21:42.779Z,65.00
2018-03-20T00:22:48.397Z,65.00
2018-03-20T00:23:53.740Z,64.70
2018-03-20T00:24:59.794Z,64.80
2018-03-20T00:26:05.368Z,65.20
2018-03-20T00:27:11.718Z,66.40
2018-03-20T00:28:16.875Z,67.00
2018-03-20T00:29:22.237Z,68.20
2018-03-20T00:30:27.347Z,68.60
2018-03-20T00:31:32.718Z,68.50
2018-03-20T00:32:39.245Z,69.00
2018-03-20T00:33:44.670Z,69.00
2018-03-20T00:34:50.071Z,68.80
2018-03-20T00:35:55.363Z,69.10
2018-03-20T00:37:02.360Z,70.10
2018-03-20T00:38:07.568Z,70.00
2018-03-20T00:39:13.323Z,69.70
2018-03-20T00:40:18.725Z,69.70
2018-03-20T00:41:25.325Z,69.30
2018-03-20T00:42:30.590Z,69.30
2018-03-20T00:43:37.072Z,69.20
2018-03-20T00:44:42.554Z,69.50
2018-03-20T00:45:47.841Z,69.50
2018-03-20T00:46:54.288Z,70.20
2018-03-20T00:48:01.221Z,70.70
2018-03-20T00:49:06.544Z,70.90
2018-03-20T00:50:12.024Z,70.70
2018-03-20T00:51:17.159Z,70.90
2018-03-20T00:52:22.573Z,71.90
2018-03-20T00:53:27.831Z,73.00
2018-03-20T00:54:33.916Z,74.20
2018-03-20T00:55:39.310Z,74.20
2018-03-20T00:56:45.591Z,72.60
2018-03-20T00:57:50.840Z,72.60
2018-03-20T00:58:56.150Z,72.40
2018-03-20T01:00:01.675Z,72.20
2018-03-20T01:01:07.025Z,72.00
2018-03-20T01:02:12.456Z,72.80
2018-03-20T01:03:17.844Z,72.60
2018-03-20T01:04:23.218Z,72.00
2018-03-20T01:05:28.374Z,71.20
2018-03-20T01:06:33.897Z,70.80
2018-03-20T01:07:39.700Z,70.70
2018-03-20T01:08:45.698Z,70.90
2018-03-20T01:09:51.181Z,70.60
2018-03-20T01:10:57.856Z,70.40
2018-03-20T01:12:03.720Z,70.40
2018-03-20T01:13:08.938Z,70.10
2018-03-20T01:14:14.393Z,70.40
2018-03-20T01:15:19.842Z,70.40
2018-03-20T01:16:25.537Z,71.10
2018-03-20T01:17:30.804Z,71.10
2018-03-20T01:18:36.976Z,71.30
2018-03-20T01:19:42.829Z,72.00
2018-03-20T01:20:48.412Z,70.60
2018-03-20T01:21:54.828Z,70.10
2018-03-20T01:23:02.084Z,70.60
2018-03-20T01:24:09.010Z,70.40
2018-03-20T01:25:14.491Z,70.80
2018-03-20T01:26:19.901Z,70.80
2018-03-20T01:27:26.944Z,70.70
2018-03-20T01:28:32.813Z,70.60
2018-03-20T01:29:38.492Z,70.00
2018-03-20T01:30:43.975Z,70.00
2018-03-20T01:31:49.467Z,70.60
2018-03-20T01:32:55.728Z,70.40
2018-03-20T01:34:01.313Z,70.40
2018-03-20T01:35:06.460Z,71.40
2018-03-20T01:36:11.660Z,72.00
2018-03-20T01:37:16.897Z,72.40
2018-03-20T01:38:22.392Z,72.70
2018-03-20T01:39:27.665Z,72.70
2018-03-20T01:40:32.951Z,72.20
2018-03-20T01:41:38.348Z,71.70
2018-03-20T01:42:44.822Z,72.90
2018-03-20T01:43:50.798Z,73.20
2018-03-20T01:44:56.043Z,73.20
2018-03-20T01:46:00.968Z,72.90
2018-03-20T01:47:06.242Z,72.90
2018-03-20T01:48:12.075Z,72.40
2018-03-20T01:49:17.314Z,72.40
2018-03-20T01:50:23.560Z,72.30
2018-03-20T01:51:28.485Z,72.30
2018-03-20T01:52:33.551Z,72.10
2018-03-20T01:53:38.752Z,72.50
2018-03-20T01:54:45.025Z,73.10
2018-03-20T01:55:50.489Z,73.00
2018-03-20T01:56:55.779Z,73.10
2018-03-20T01:58:01.606Z,73.20
2018-03-20T01:59:07.842Z,73.80
2018-03-20T02:00:12.733Z,73.80
2018-03-20T02:01:18.233Z,74.10
2018-03-20T02:02:23.896Z,74.90
2018-03-20T02:03:29.115Z,75.20
2018-03-20T02:04:34.156Z,75.40
2018-03-20T02:05:40.380Z,75.50
2018-03-20T02:06:45.279Z,75.60
2018-03-20T02:07:51.221Z,75.80
2018-03-20T02:08:56.872Z,75.70
2018-03-20T02:10:03.209Z,76.10
2018-03-20T02:11:08.468Z,76.10
2018-03-20T02:12:13.348Z,76.20
2018-03-20T02:13:18.278Z,75.90
2018-03-20T02:14:23.398Z,75.90
2018-03-20T02:15:28.353Z,75.80
2018-03-20T02:16:33.442Z,76.10
2018-03-20T02:17:38.080Z,75.10
2018-03-20T02:18:43.690Z,74.20
2018-03-20T02:19:49.341Z,74.90
2018-03-20T02:20:54.582Z,74.40
2018-03-20T02:22:04.259Z,74.40
2018-03-20T02:23:10.666Z,74.30
2018-03-20T02:24:15.465Z,74.80
2018-03-20T02:25:19.878Z,75.40
2018-03-20T02:26:24.664Z,75.50
2018-03-20T02:27:29.389Z,76.10
2018-03-20T02:28:34.376Z,76.30
2018-03-20T02:29:39.989Z,75.90
2018-03-20T02:30:45.917Z,76.10
2018-03-20T02:31:50.362Z,76.10
2018-03-20T02:32:56.161Z,75.20
2018-03-20T02:34:01.054Z,75.20
2018-03-20T02:35:06.509Z,75.00
2018-03-20T02:36:11.271Z,75.50
2018-03-20T02:37:16.976Z,76.90
2018-03-20T02:38:21.437Z,76.90
2018-03-20T02:39:26.445Z,77.70
2018-03-20T02:40:31.731Z,76.80
2018-03-20T02:41:36.479Z,76.80
2018-03-20T02:42:42.176Z,76.60
2018-03-20T02:43:47.055Z,76.60
2018-03-20T02:44:52.410Z,76.40
2018-03-20T02:45:56.951Z,76.40
2018-03-20T02:47:00.853Z,76.30
2018-03-20T02:48:05.858Z,76.30
2018-03-20T02:49:10.706Z,76.30
2018-03-20T02:50:15.033Z,76.30
2018-03-20T02:51:19.331Z,76.30
2018-03-20T02:52:23.823Z,76.40
2018-03-20T02:53:28.263Z,76.40
2018-03-20T02:54:33.625Z,77.60
2018-03-20T02:55:38.624Z,77.50
2018-03-20T02:56:43.674Z,78.80
2018-03-20T02:57:48.197Z,78.70
2018-03-20T02:58:52.875Z,78.70
2018-03-20T02:59:57.969Z,79.60
2018-03-20T03:01:03.484Z,79.50
2018-03-20T03:02:08.274Z,79.90
2018-03-20T03:03:12.580Z,80.80
2018-03-20T03:04:16.975Z,80.60
2018-03-20T03:05:22.582Z,80.00
2018-03-20T03:06:26.947Z,80.10
2018-03-20T03:07:31.751Z,79.90
2018-03-20T03:08:36.246Z,79.80
2018-03-20T03:09:41.293Z,78.70
2018-03-20T03:10:45.771Z,78.70
2018-03-20T03:11:51.014Z,77.90
2018-03-20T03:12:56.112Z,77.90
2018-03-20T03:14:00.601Z,77.90
2018-03-20T03:15:05.583Z,77.70
2018-03-20T03:16:10.617Z,78.30
2018-03-20T03:17:15.119Z,77.40
2018-03-20T03:18:19.802Z,77.00
2018-03-20T03:19:24.715Z,76.90
2018-03-20T03:20:30.034Z,76.50
2018-03-20T03:21:35.253Z,76.40
2018-03-20T03:22:39.856Z,76.60
2018-03-20T03:23:44.876Z,77.30
2018-03-20T03:24:49.423Z,77.30
2018-03-20T03:25:55.213Z,76.50
2018-03-20T03:27:00.228Z,76.50
2018-03-20T03:28:04.881Z,76.50
2018-03-20T03:29:09.151Z,76.90
2018-03-20T03:30:13.515Z,77.30
2018-03-20T03:31:18.290Z,77.50
2018-03-20T03:32:22.908Z,77.70
2018-03-20T03:33:27.714Z,76.90
2018-03-20T03:34:33.652Z,76.80
2018-03-20T03:35:39.177Z,77.10
2018-03-20T03:36:44.242Z,77.50
2018-03-20T03:37:49.134Z,77.50
2018-03-20T03:38:53.509Z,77.50
2018-03-20T03:39:58.067Z,77.70
2018-03-20T03:41:02.683Z,77.70
2018-03-20T03:42:07.087Z,78.00
2018-03-20T03:43:11.574Z,78.00
2018-03-20T03:44:16.991Z,78.70
2018-03-20T03:45:21.345Z,78.80
2018-03-20T03:46:26.471Z,79.50
2018-03-20T03:47:31.389Z,80.60
2018-03-20T03:48:35.972Z,79.70
2018-03-20T03:49:41.412Z,78.70
2018-03-20T03:50:46.435Z,78.90
2018-03-20T03:51:51.755Z,79.30
2018-03-20T03:52:56.180Z,79.30
2018-03-20T03:54:01.326Z,79.30
2018-03-20T03:55:06.346Z,79.60
2018-03-20T03:56:11.209Z,80.10
2018-03-20T03:57:15.700Z,80.00
2018-03-20T03:58:20.290Z,80.00
2018-03-20T03:59:24.873Z,79.70
2018-03-20T04:00:29.303Z,79.80
2018-03-20T04:01:36.005Z,80.20
2018-03-20T04:02:40.323Z,80.10
2018-03-20T04:03:44.820Z,79.40
2018-03-20T04:04:49.688Z,79.40
2018-03-20T04:05:56.303Z,79.50
2018-03-20T04:07:01.408Z,79.50
2018-03-20T04:08:05.781Z,79.50
2018-03-20T04:09:11.129Z,79.10
2018-03-20T04:10:16.195Z,79.20
2018-03-20T04:11:20.746Z,79.20
2018-03-20T04:12:25.049Z,78.80
2018-03-20T04:13:29.797Z,78.50
2018-03-20T04:14:34.951Z,77.40
2018-03-20T04:15:39.764Z,77.30
2018-03-20T04:16:44.485Z,77.50
2018-03-20T04:17:49.485Z,77.40
2018-03-20T04:18:53.821Z,77.70
2018-03-20T04:19:58.846Z,78.10
2018-03-20T04:21:03.846Z,78.60
2018-03-20T04:22:08.382Z,78.90
2018-03-20T04:23:13.077Z,79.10
2018-03-20T04:24:17.432Z,79.40
2018-03-20T04:25:22.218Z,79.40
2018-03-20T04:26:26.492Z,79.60
2018-03-20T04:27:31.790Z,80.20
2018-03-20T04:28:36.085Z,80.60
2018-03-20T04:29:40.741Z,81.30
2018-03-20T04:30:45.926Z,81.20
2018-03-20T04:31:50.319Z,81.20
2018-03-20T04:32:54.805Z,81.20
2018-03-20T04:33:59.736Z,81.00
2018-03-20T04:35:04.383Z,80.90
2018-03-20T04:36:08.740Z,81.10
2018-03-20T04:37:13.459Z,81.10
2018-03-20T04:38:18.227Z,80.80
2018-03-20T04:39:23.077Z,80.50
2018-03-20T04:40:28.326Z,80.00
2018-03-20T04:41:32.640Z,80.10
2018-03-20T04:42:37.313Z,80.00
2018-03-20T04:43:42.026Z,80.70
2018-03-20T04:44:46.679Z,79.90
2018-03-20T04:45:51.208Z,79.80
2018-03-20T04:46:55.564Z,79.90
2018-03-20T04:48:01.214Z,80.60
2018-03-20T04:49:05.767Z,80.50
2018-03-20T04:50:11.044Z,80.10
2018-03-20T04:51:15.734Z,79.80
2018-03-20T04:52:20.873Z,79.80
2018-03-20T04:53:25.323Z,80.20
2018-03-20T04:54:30.805Z,80.60
2018-03-20T04:55:35.626Z,80.60
2018-03-20T04:56:40.524Z,80.40
2018-03-20T04:57:45.005Z,81.00
2018-03-20T04:58:50.177Z,81.50
2018-03-20T04:59:55.135Z,81.50
2018-03-20T05:01:00.477Z,81.70
2018-03-20T05:02:05.216Z,81.80
2018-03-20T05:03:10.328Z,82.20
2018-03-20T05:04:15.921Z,82.70
2018-03-20T05:05:21.328Z,82.70
2018-03-20T05:06:26.649Z,83.20
2018-03-20T05:07:31.961Z,83.60
2018-03-20T05:08:37.874Z,83.80
2018-03-20T05:09:42.708Z,83.80
2018-03-20T05:10:47.616Z,84.00
2018-03-20T05:11:52.372Z,84.20
2018-03-20T05:12:57.675Z,84.40
2018-03-20T05:14:02.682Z,84.40
2018-03-20T05:15:07.496Z,84.40
2018-03-20T05:16:12.464Z,84.30
2018-03-20T05:17:18.123Z,85.10
2018-03-20T05:18:22.742Z,84.80
2018-03-20T05:19:27.782Z,85.20
2018-03-20T05:20:33.439Z,85.80
2018-03-20T05:21:38.445Z,85.80
2018-03-20T05:22:43.757Z,85.50
2018-03-20T05:23:48.868Z,85.20
2018-03-20T05:24:53.745Z,85.80
2018-03-20T05:25:58.631Z,84.50
2018-03-20T05:27:03.523Z,84.80
2018-03-20T05:28:08.562Z,84.70
2018-03-20T05:29:13.328Z,85.30
2018-03-20T05:30:18.246Z,85.50
2018-03-20T05:31:22.935Z,85.70
2018-03-20T05:32:28.697Z,86.50
2018-03-20T05:33:33.290Z,86.60
2018-03-20T05:34:38.171Z,86.80
2018-03-20T05:35:43.657Z,88.40
2018-03-20T05:36:48.483Z,88.40
2018-03-20T05:37:53.558Z,88.80
2018-03-20T05:38:59.220Z,90.10
2018-03-20T05:40:04.944Z,89.90
2018-03-20T05:41:09.876Z,90.40
2018-03-20T05:42:15.999Z,90.70
2018-03-20T05:43:21.797Z,91.00
2018-03-20T05:44:27.031Z,91.30
2018-03-20T05:45:32.645Z,91.70
2018-03-20T05:46:37.845Z,92.50
2018-03-20T05:47:42.903Z,93.20
2018-03-20T05:48:49.446Z,93.80
2018-03-20T05:49:54.832Z,93.80
2018-03-20T05:51:01.962Z,94.80
2018-03-20T05:52:07.277Z,94.80
2018-03-20T05:53:12.455Z,95.30
2018-03-20T05:54:18.768Z,95.70
2018-03-20T05:55:24.598Z,96.30
2018-03-20T05:56:29.980Z,96.90
2018-03-20T05:57:35.376Z,97.30
2018-03-20T05:58:41.026Z,97.40
2018-03-20T05:59:46.447Z,97.60
2018-03-20T06:00:51.460Z,97.80
2018-03-20T06:01:56.286Z,98.10
2018-03-20T06:03:03.288Z,98.40
2018-03-20T06:04:08.486Z,98.30
2018-03-20T06:05:14.061Z,98.70
2018-03-20T06:06:20.428Z,98.80
2018-03-20T06:07:26.889Z,99.00
2018-03-20T06:08:33.366Z,98.70
2018-03-20T06:09:39.210Z,99.00
2018-03-20T06:11:09.210Z,99.00
2018-03-20T06:12:15.729Z,99.50
2018-03-20T06:13:21.189Z,99.40
2018-03-20T06:14:27.506Z,99.90
2018-03-20T06:15:33.406Z,99.90
2018-03-20T06:16:39.766Z,99.90
2018-03-20T06:17:45.010Z,99.90
2018-03-20T06:18:50.104Z,99.90
2018-03-20T06:19:56.364Z,99.90
2018-03-20T06:21:02.444Z,99.90
2018-03-20T06:22:07.800Z,99.90
2018-03-20T06:23:13.465Z,99.90
2018-03-20T06:24:19.200Z,99.90
2018-03-20T06:25:26.012Z,99.90
2018-03-20T06:26:31.284Z,99.90
2018-03-20T06:27:36.527Z,99.90
2018-03-20T06:28:41.969Z,99.90
2018-03-20T06:29:47.992Z,99.90
2018-03-20T06:30:53.472Z,99.90
2018-03-20T06:32:01.891Z,99.90
2018-03-20T06:33:07.395Z,99.90
2018-03-20T06:34:13.859Z,99.90
2018-03-20T06:35:20.223Z,99.90
2018-03-20T06:36:26.236Z,99.90
2018-03-20T06:37:31.708Z,99.90
2018-03-20T06:38:38.137Z,99.90
2018-03-20T06:39:44.372Z,99.90
2018-03-20T06:40:50.010Z,99.90
2018-03-20T06:41:55.660Z,99.90
2018-03-20T06:43:02.013Z,99.90
2018-03-20T06:44:07.697Z,99.90
2018-03-20T06:45:12.977Z,99.90
2018-03-20T06:46:18.478Z,99.90
2018-03-20T06:47:23.651Z,99.90
2018-03-20T06:48:29.256Z,99.90
2018-03-20T06:49:34.473Z,99.90
2018-03-20T06:50:39.589Z,99.90
2018-03-20T06:51:44.764Z,99.90
2018-03-20T06:52:50.845Z,99.90
2018-03-20T06:53:56.577Z,99.90
2018-03-20T06:55:03.661Z,99.90
2018-03-20T06:56:09.226Z,99.90
2018-03-20T06:57:14.805Z,99.90
2018-03-20T06:58:21.195Z,99.90
2018-03-20T06:59:26.511Z,99.90
2018-03-20T07:00:31.709Z,99.90
2018-03-20T07:01:36.947Z,99.90
2018-03-20T07:02:43.059Z,99.90
2018-03-20T07:03:49.086Z,99.90
2018-03-20T07:04:55.331Z,99.90
2018-03-20T07:06:01.481Z,99.90
2018-03-20T07:07:06.589Z,99.90
2018-03-20T07:08:11.827Z,99.90
2018-03-20T07:09:17.501Z,99.90
2018-03-20T07:10:23.153Z,99.90
2018-03-20T07:11:28.481Z,99.90
2018-03-20T07:12:33.648Z,99.90
2018-03-20T07:13:39.830Z,99.90
2018-03-20T07:14:45.009Z,99.90
2018-03-20T07:15:51.073Z,99.90
2018-03-20T07:16:57.242Z,99.90
2018-03-20T07:18:02.336Z,99.90
2018-03-20T07:19:08.599Z,99.90
2018-03-20T07:20:14.646Z,99.90
2018-03-20T07:21:20.065Z,99.90
2018-03-20T07:22:25.286Z,99.90
2018-03-20T07:23:30.366Z,99.90
2018-03-20T07:24:35.503Z,99.90
2018-03-20T07:25:40.905Z,99.90
2018-03-20T07:26:46.452Z,99.90
2018-03-20T07:27:51.744Z,99.90
2018-03-20T07:28:57.960Z,99.90
2018-03-20T07:30:03.947Z,99.90
2018-03-20T07:31:10.168Z,99.90
2018-03-20T07:32:15.730Z,99.90
2018-03-20T07:33:21.655Z,99.90
2018-03-20T07:34:26.957Z,99.90
2018-03-20T07:35:32.226Z,99.90
2018-03-20T07:36:37.575Z,99.90
2018-03-20T07:37:43.752Z,99.90
2018-03-20T07:38:48.870Z,99.90
2018-03-20T07:39:54.181Z,99.90
2018-03-20T07:41:03.903Z,99.90
2018-03-20T07:42:09.726Z,99.90
2018-03-20T07:43:15.302Z,99.90
2018-03-20T07:44:20.728Z,99.90
2018-03-20T07:45:26.809Z,99.90
2018-03-20T07:46:32.801Z,99.90
2018-03-20T07:47:38.080Z,99.90
2018-03-20T07:48:43.334Z,99.90
2018-03-20T07:49:48.661Z,99.90
2018-03-20T07:50:56.240Z,99.90
2018-03-20T07:52:02.574Z,99.90
2018-03-20T07:53:07.607Z,99.90
2018-03-20T07:54:14.247Z,99.90
2018-03-20T07:55:20.348Z,99.90
2018-03-20T07:56:25.631Z,99.90
2018-03-20T07:57:30.936Z,99.90
2018-03-20T07:58:36.972Z,99.90
2018-03-20T07:59:42.430Z,99.90
2018-03-20T08:00:48.481Z,99.90
2018-03-20T08:01:54.421Z,99.90
2018-03-20T08:03:00.241Z,99.90
2018-03-20T08:04:05.474Z,99.90
2018-03-20T08:05:10.711Z,99.90
2018-03-20T08:06:16.861Z,99.90
2018-03-20T08:07:21.923Z,99.90
2018-03-20T08:08:27.149Z,99.90
2018-03-20T08:09:33.180Z,99.90
2018-03-20T08:10:38.314Z,99.90
2018-03-20T08:11:43.869Z,99.90
2018-03-20T08:12:49.140Z,99.90
2018-03-20T08:13:54.255Z,99.90
2018-03-20T08:15:00.271Z,99.90
2018-03-20T08:16:05.565Z,99.90
2018-03-20T08:17:13.077Z,99.90
2018-03-20T08:18:18.464Z,99.90
2018-03-20T08:19:23.700Z,99.90
2018-03-20T08:20:29.616Z,99.90
2018-03-20T08:21:34.927Z,99.90
2018-03-20T08:22:40.637Z,99.90
2018-03-20T08:23:45.894Z,99.90
2018-03-20T08:24:52.387Z,99.90
2018-03-20T08:25:57.422Z,99.90
2018-03-20T08:27:04.038Z,99.90
2018-03-20T08:28:08.941Z,99.90
2018-03-20T08:29:14.013Z,99.90
2018-03-20T08:30:19.287Z,99.90
2018-03-20T08:31:25.458Z,99.90
2018-03-20T08:32:30.987Z,99.90
2018-03-20T08:33:36.256Z,99.90
2018-03-20T08:34:41.318Z,99.90
2018-03-20T08:35:47.234Z,99.90
2018-03-20T08:36:52.193Z,99.90
2018-03-20T08:37:57.336Z,99.90
2018-03-20T08:39:02.395Z,99.90
2018-03-20T08:40:07.958Z,99.90
2018-03-20T08:41:13.718Z,99.90
2018-03-20T08:42:18.656Z,99.90
2018-03-20T08:43:24.380Z,99.90
2018-03-20T08:44:29.994Z,99.90
2018-03-20T08:45:35.681Z,99.90
2018-03-20T08:46:40.625Z,99.90
2018-03-20T08:47:47.105Z,99.90
2018-03-20T08:48:57.415Z,99.90
2018-03-20T08:50:03.326Z,99.90
2018-03-20T08:51:08.765Z,99.90
2018-03-20T08:52:15.008Z,99.90
2018-03-20T08:53:22.003Z,99.90
2018-03-20T08:54:28.166Z,99.90
2018-03-20T08:55:34.268Z,99.90
2018-03-20T08:56:40.551Z,99.90
2018-03-20T08:57:45.372Z,99.90
2018-03-20T08:58:50.312Z,99.90
2018-03-20T08:59:55.494Z,99.90
2018-03-20T09:01:02.012Z,99.90
2018-03-20T09:02:07.097Z,99.90
2018-03-20T09:03:12.152Z,99.90
2018-03-20T09:04:17.257Z,99.90
2018-03-20T09:05:22.204Z,99.90
2018-03-20T09:06:27.207Z,99.90
2018-03-20T09:07:33.607Z,99.90
2018-03-20T09:08:38.693Z,99.90
2018-03-20T09:09:43.760Z,99.90
2018-03-20T09:10:48.827Z,99.90
2018-03-20T09:11:53.892Z,99.90
2018-03-20T09:12:59.972Z,99.90
2018-03-20T09:14:05.921Z,99.90
2018-03-20T09:15:11.679Z,99.90
2018-03-20T09:16:16.625Z,99.90
2018-03-20T09:17:21.743Z,99.90
2018-03-20T09:18:26.710Z,99.90
2018-03-20T09:19:32.469Z,99.90
2018-03-20T09:20:38.141Z,99.90
2018-03-20T09:21:43.202Z,99.90
2018-03-20T09:22:48.138Z,99.90
2018-03-20T09:23:53.934Z,99.90
2018-03-20T09:24:59.732Z,99.90
2018-03-20T09:26:05.667Z,99.90
2018-03-20T09:27:11.421Z,99.90
2018-03-20T09:28:17.416Z,99.90
2018-03-20T09:29:22.342Z,99.90
2018-03-20T09:30:27.617Z,99.90
2018-03-20T09:31:33.373Z,99.90
2018-03-20T09:32:39.192Z,99.90
2018-03-20T09:33:44.335Z,99.90
2018-03-20T09:34:50.109Z,99.90
2018-03-20T09:35:55.038Z,99.90
2018-03-20T09:37:00.013Z,99.90
2018-03-20T09:38:06.073Z,99.90
2018-03-20T09:39:11.827Z,99.90
2018-03-20T09:40:16.936Z,99.90
2018-03-20T09:41:23.905Z,99.90
2018-03-20T09:42:29.604Z,99.90
2018-03-20T09:43:34.502Z,99.90
2018-03-20T09:44:39.505Z,99.90
2018-03-20T09:45:44.491Z,99.90
2018-03-20T09:46:49.931Z,99.90
2018-03-20T09:47:55.134Z,99.90
2018-03-20T09:49:00.329Z,99.90
2018-03-20T09:50:06.187Z,99.90
2018-03-20T09:51:11.284Z,99.90
2018-03-20T09:52:16.452Z,99.90
2018-03-20T09:53:21.328Z,99.90
2018-03-20T09:54:27.057Z,99.90
2018-03-20T09:55:33.037Z,99.40
2018-03-20T09:56:38.316Z,99.40
2018-03-20T09:57:44.068Z,98.60
2018-03-20T09:58:50.031Z,98.80
2018-03-20T09:59:54.979Z,98.80
2018-03-20T10:01:00.135Z,99.10
2018-03-20T10:02:05.302Z,98.50
2018-03-20T10:03:10.268Z,99.90
2018-03-20T10:04:15.331Z,99.90
2018-03-20T10:05:21.010Z,98.80
2018-03-20T10:06:26.133Z,98.70
2018-03-20T10:07:31.042Z,98.60
2018-03-20T10:08:36.367Z,96.90
2018-03-20T10:09:41.347Z,95.80
2018-03-20T10:10:46.304Z,96.50
2018-03-20T10:11:52.045Z,95.70
2018-03-20T10:12:56.813Z,95.60
2018-03-20T10:14:03.341Z,95.40
2018-03-20T10:15:08.290Z,94.20
2018-03-20T10:16:13.072Z,93.40
2018-03-20T10:17:18.074Z,93.80
2018-03-20T10:18:23.768Z,94.00
2018-03-20T10:19:29.640Z,94.00
2018-03-20T10:20:35.269Z,93.50
2018-03-20T10:21:40.211Z,93.50
2018-03-20T10:22:45.106Z,93.10
2018-03-20T10:23:49.797Z,91.70
2018-03-20T10:24:57.222Z,91.00
2018-03-20T10:26:04.276Z,90.20
2018-03-20T10:27:09.071Z,90.20
2018-03-20T10:28:14.863Z,90.70
2018-03-20T10:29:22.874Z,90.90
2018-03-20T10:30:28.755Z,90.90
2018-03-20T10:31:33.656Z,91.50
2018-03-20T10:32:38.521Z,90.10
2018-03-20T10:33:43.609Z,88.20
2018-03-20T10:34:48.631Z,88.50
2018-03-20T10:35:54.246Z,90.10
2018-03-20T10:37:00.418Z,88.40
2018-03-20T10:38:06.240Z,87.80
2018-03-20T10:39:11.056Z,87.80
2018-03-20T10:40:16.177Z,87.70
2018-03-20T10:41:21.388Z,89.10
2018-03-20T10:42:26.575Z,86.80
2018-03-20T10:43:31.378Z,86.80
2018-03-20T10:44:36.343Z,86.50
2018-03-20T10:45:41.194Z,84.90
2018-03-20T10:46:46.690Z,82.50
2018-03-20T10:47:51.583Z,82.50
2018-03-20T10:48:56.853Z,82.20
2018-03-20T10:50:03.221Z,83.90
2018-03-20T10:51:08.903Z,81.90
2018-03-20T10:52:13.675Z,81.90
2018-03-20T10:53:19.287Z,83.90
2018-03-20T10:54:24.313Z,83.90
2018-03-20T10:55:29.206Z,82.60
2018-03-20T10:56:34.096Z,81.30
2018-03-20T10:57:40.213Z,80.10
2018-03-20T10:58:45.761Z,78.80
2018-03-20T10:59:51.419Z,76.40
2018-03-20T11:01:01.167Z,77.10
2018-03-20T11:02:10.168Z,77.20
2018-03-20T11:03:15.861Z,76.50
2018-03-20T11:04:20.842Z,76.50
2018-03-20T11:05:25.641Z,75.30
2018-03-20T11:06:31.253Z,74.60
2018-03-20T11:07:37.409Z,74.50
2018-03-20T11:08:42.229Z,75.20
2018-03-20T11:09:47.430Z,74.40
2018-03-20T11:10:52.492Z,73.30
2018-03-20T11:11:58.136Z,71.20
2018-03-20T11:13:03.618Z,71.50
2018-03-20T11:14:09.434Z,71.50
2018-03-20T11:15:14.790Z,71.10
2018-03-20T11:16:20.558Z,68.10
2018-03-20T11:17:25.968Z,68.00
2018-03-20T11:18:30.918Z,70.40
2018-03-20T11:19:35.857Z,69.90
2018-03-20T11:20:41.654Z,67.00
2018-03-20T11:21:46.597Z,67.00
2018-03-20T11:22:52.015Z,65.80
2018-03-20T11:23:58.262Z,64.60
2018-03-20T11:25:03.847Z,65.50
2018-03-20T11:26:09.314Z,64.50
2018-03-20T11:27:14.097Z,64.60
2018-03-20T11:28:19.660Z,64.60
2018-03-20T11:29:24.425Z,64.80
2018-03-20T11:30:29.372Z,54.00
2018-03-20T11:31:35.251Z,57.90
2018-03-20T11:32:39.954Z,57.90
2018-03-20T11:33:44.729Z,56.20
2018-03-20T11:34:49.751Z,59.50
2018-03-20T11:35:54.857Z,53.70
2018-03-20T11:37:00.816Z,52.90
2018-03-20T11:38:05.598Z,56.70
2018-03-20T11:39:10.441Z,53.00
2018-03-20T11:40:15.339Z,52.20
2018-03-20T11:41:20.148Z,49.10
2018-03-20T11:42:25.842Z,53.40
2018-03-20T11:43:30.705Z,52.40
2018-03-20T11:44:35.729Z,48.50
2018-03-20T11:45:40.624Z,51.20
2018-03-20T11:46:46.322Z,50.60
2018-03-20T11:47:51.064Z,50.90
2018-03-20T11:48:56.028Z,48.30
2018-03-20T11:50:02.489Z,47.40
2018-03-20T11:51:08.065Z,47.00
2018-03-20T11:52:12.969Z,45.90
2018-03-20T11:53:18.008Z,45.60
2018-03-20T11:54:23.603Z,43.80
2018-03-20T11:55:28.383Z,43.70
2018-03-20T11:56:33.207Z,44.80
2018-03-20T11:57:38.931Z,46.60
2018-03-20T11:58:43.647Z,48.40
2018-03-20T11:59:48.510Z,49.30
2018-03-20T12:00:54.220Z,42.50
2018-03-20T12:02:00.158Z,42.50
2018-03-20T12:03:05.191Z,41.00
2018-03-20T12:04:10.189Z,44.00
2018-03-20T12:05:15.509Z,45.60
2018-03-20T12:06:20.431Z,42.70
2018-03-20T12:07:25.321Z,41.40
2018-03-20T12:08:40.268Z,42.70
2018-03-20T12:09:50.847Z,38.50
2018-03-20T12:10:55.762Z,38.40
2018-03-20T12:12:03.689Z,37.60
2018-03-20T12:13:08.839Z,38.90
2018-03-20T12:14:13.649Z,36.40
2018-03-20T12:15:19.181Z,38.00
2018-03-20T12:16:24.766Z,38.00
2018-03-20T12:17:29.657Z,35.20
2018-03-20T12:18:35.333Z,38.40
2018-03-20T12:19:40.199Z,38.30
2018-03-20T12:20:45.010Z,38.10
2018-03-20T12:21:50.040Z,37.60
2018-03-20T12:22:54.844Z,36.50
2018-03-20T12:24:00.881Z,35.50
2018-03-20T12:25:05.849Z,34.30
2018-03-20T12:26:10.752Z,35.50
2018-03-20T12:27:15.651Z,37.60
2018-03-20T12:28:20.575Z,34.90
2018-03-20T12:29:25.980Z,35.10
2018-03-20T12:30:30.807Z,35.60
2018-03-20T12:31:35.750Z,35.60
2018-03-20T12:32:41.030Z,34.50
2018-03-20T12:33:46.659Z,34.80
2018-03-20T12:34:52.221Z,34.60
2018-03-20T12:35:57.055Z,34.70
2018-03-20T12:37:04.026Z,34.10
2018-03-20T12:38:09.912Z,33.50
2018-03-20T12:39:14.821Z,33.40
2018-03-20T12:40:19.602Z,34.40
2018-03-20T12:41:24.333Z,34.70
2018-03-20T12:42:29.353Z,34.40
2018-03-20T12:43:34.363Z,34.00
2018-03-20T12:44:39.165Z,32.40
2018-03-20T12:45:44.161Z,32.10
2018-03-20T12:46:49.736Z,30.00
2018-03-20T12:47:54.593Z,30.00
2018-03-20T12:49:00.936Z,30.10
2018-03-20T12:50:05.803Z,29.80
2018-03-20T12:51:11.314Z,30.40
2018-03-20T12:52:16.245Z,30.50
2018-03-20T12:53:20.941Z,30.60
2018-03-20T12:54:25.998Z,30.90
2018-03-20T12:55:32.236Z,30.10
2018-03-20T12:56:36.957Z,30.00
2018-03-20T12:57:41.663Z,30.60
2018-03-20T12:58:46.790Z,30.20
2018-03-20T12:59:51.517Z,30.80
2018-03-20T13:00:57.442Z,31.20
2018-03-20T13:02:03.325Z,31.30
2018-03-20T13:03:08.875Z,31.00
2018-03-20T13:04:14.783Z,31.00
2018-03-20T13:05:20.628Z,30.70
2018-03-20T13:06:26.140Z,30.60
2018-03-20T13:07:30.899Z,30.60
2018-03-20T13:08:36.453Z,30.70
2018-03-20T13:09:42.162Z,30.60
2018-03-20T13:10:47.724Z,29.70
2018-03-20T13:11:53.813Z,29.70
2018-03-20T13:12:59.500Z,29.70
2018-03-20T13:14:04.729Z,29.10
2018-03-20T13:15:10.311Z,28.80
2018-03-20T13:16:15.033Z,28.80
2018-03-20T13:17:20.499Z,28.50
2018-03-20T13:18:25.318Z,28.80
2018-03-20T13:19:30.630Z,29.10
2018-03-20T13:20:35.476Z,28.60
2018-03-20T13:21:41.107Z,28.10
2018-03-20T13:22:46.554Z,27.30
2018-03-20T13:23:53.606Z,27.50
2018-03-20T13:25:02.968Z,27.00
2018-03-20T13:26:07.795Z,27.00
2018-03-20T13:27:13.624Z,27.20
2018-03-20T13:28:18.861Z,27.40
2018-03-20T13:29:23.812Z,27.20
2018-03-20T13:30:28.842Z,27.50
2018-03-20T13:31:34.436Z,26.60
2018-03-20T13:32:39.369Z,26.60
2018-03-20T13:33:44.363Z,27.10
2018-03-20T13:34:52.340Z,27.30
2018-03-20T13:35:57.116Z,27.30
2018-03-20T13:37:03.059Z,27.10
2018-03-20T13:38:07.979Z,27.30
2018-03-20T13:39:13.183Z,27.70
2018-03-20T13:40:18.031Z,28.50
2018-03-20T13:41:23.153Z,28.90
2018-03-20T13:42:27.878Z,27.00
2018-03-20T13:43:32.758Z,26.30
2018-03-20T13:44:38.693Z,26.20
2018-03-20T13:45:43.386Z,26.20
2018-03-20T13:46:48.869Z,26.70
2018-03-20T13:47:53.616Z,26.70
2018-03-20T13:49:00.025Z,26.20
2018-03-20T13:50:04.926Z,25.90
2018-03-20T13:51:09.785Z,26.20
2018-03-20T13:52:14.825Z,26.80
2018-03-20T13:53:19.630Z,26.30
2018-03-20T13:54:24.492Z,26.20
2018-03-20T13:55:29.604Z,25.40
2018-03-20T13:56:34.775Z,25.40
2018-03-20T13:57:40.298Z,25.80
2018-03-20T13:58:46.053Z,26.00
2018-03-20T13:59:50.933Z,26.10
2018-03-20T14:00:55.818Z,25.90
2018-03-20T14:02:02.450Z,26.10
2018-03-20T14:03:07.333Z,26.20